sensor_id;sensor_type;location;lat;lon;timestamp;P1;durP1;ratioP1;P2;durP2;ratioP2
59161;SDS011;44942;48.936;8.260;2023-05-24T00:04:21;6.80;;;4.85;;
59161;SDS011;44942;48.936;8.260;2023-05-24T00:09:23;7.38;;;4.70;;
59161;SDS011;44942;48.936;8.260;2023-05-24T00:14:24;6.07;;;4.47;;
59161;SDS011;44942;48.936;8.260;2023-05-24T00:19:25;8.03;;;4.43;;
59161;SDS011;44942;48.936;8.260;2023-05-24T00:24:26;6.38;;;4.40;;
59161;SDS011;44942;48.936;8.260;2023-05-24T00:29:26;5.93;;;4.37;;
59161;SDS011;44942;48.936;8.260;2023-05-24T00:34:27;6.23;;;4.60;;
59161;SDS011;44942;48.936;8.260;2023-05-24T00:39:27;5.30;;;4.03;;
59161;SDS011;44942;48.936;8.260;2023-05-24T00:44:28;7.80;;;4.43;;
59161;SDS011;44942;48.936;8.260;2023-05-24T00:54:30;9.37;;;5.00;;
59161;SDS011;44942;48.936;8.260;2023-05-24T00:59:31;7.63;;;4.60;;
59161;SDS011;44942;48.936;8.260;2023-05-24T01:04:31;7.47;;;4.05;;
59161;SDS011;44942;48.936;8.260;2023-05-24T01:09:33;5.17;;;4.27;;
59161;SDS011;44942;48.936;8.260;2023-05-24T01:14:55;8.55;;;4.57;;
59161;SDS011;44942;48.936;8.260;2023-05-24T01:20:09;6.03;;;4.03;;
59161;SDS011;44942;48.936;8.260;2023-05-24T01:25:16;6.65;;;4.20;;
59161;SDS011;44942;48.936;8.260;2023-05-24T01:30:28;7.80;;;4.63;;
59161;SDS011;44942;48.936;8.260;2023-05-24T01:35:28;8.00;;;4.78;;
59161;SDS011;44942;48.936;8.260;2023-05-24T01:40:29;6.23;;;4.73;;
59161;SDS011;44942;48.936;8.260;2023-05-24T01:45:43;8.35;;;4.80;;
59161;SDS011;44942;48.936;8.260;2023-05-24T01:51:04;7.82;;;4.38;;
59161;SDS011;44942;48.936;8.260;2023-05-24T01:56:07;5.90;;;4.32;;
59161;SDS011;44942;48.936;8.260;2023-05-24T02:01:09;6.65;;;4.50;;
59161;SDS011;44942;48.936;8.260;2023-05-24T02:06:10;7.63;;;4.32;;
59161;SDS011;44942;48.936;8.260;2023-05-24T02:11:14;7.20;;;4.80;;
59161;SDS011;44942;48.936;8.260;2023-05-24T02:16:15;6.38;;;4.43;;
59161;SDS011;44942;48.936;8.260;2023-05-24T02:21:17;6.78;;;4.30;;
59161;SDS011;44942;48.936;8.260;2023-05-24T02:26:17;7.40;;;4.57;;
59161;SDS011;44942;48.936;8.260;2023-05-24T02:31:18;6.97;;;4.18;;
59161;SDS011;44942;48.936;8.260;2023-05-24T02:36:19;8.40;;;4.33;;
59161;SDS011;44942;48.936;8.260;2023-05-24T02:41:31;10.07;;;5.13;;
59161;SDS011;44942;48.936;8.260;2023-05-24T02:46:32;10.73;;;4.30;;
59161;SDS011;44942;48.936;8.260;2023-05-24T02:51:32;10.00;;;4.63;;
59161;SDS011;44942;48.936;8.260;2023-05-24T02:56:33;7.43;;;4.00;;
59161;SDS011;44942;48.936;8.260;2023-05-24T03:01:33;7.80;;;4.30;;
59161;SDS011;44942;48.936;8.260;2023-05-24T03:06:34;8.00;;;4.03;;
59161;SDS011;44942;48.936;8.260;2023-05-24T03:11:35;11.57;;;4.73;;
59161;SDS011;44942;48.936;8.260;2023-05-24T03:16:35;8.83;;;3.97;;
59161;SDS011;44942;48.936;8.260;2023-05-24T03:21:36;9.98;;;4.13;;
59161;SDS011;44942;48.936;8.260;2023-05-24T03:26:37;7.97;;;3.83;;
59161;SDS011;44942;48.936;8.260;2023-05-24T03:31:39;8.13;;;3.83;;
59161;SDS011;44942;48.936;8.260;2023-05-24T03:36:39;7.93;;;4.00;;
59161;SDS011;44942;48.936;8.260;2023-05-24T03:46:41;7.40;;;4.10;;
59161;SDS011;44942;48.936;8.260;2023-05-24T03:51:41;9.20;;;3.90;;
59161;SDS011;44942;48.936;8.260;2023-05-24T03:56:43;9.52;;;3.97;;
59161;SDS011;44942;48.936;8.260;2023-05-24T04:01:43;9.00;;;3.90;;
59161;SDS011;44942;48.936;8.260;2023-05-24T04:06:44;9.30;;;4.00;;
59161;SDS011;44942;48.936;8.260;2023-05-24T04:11:45;9.13;;;3.97;;
59161;SDS011;44942;48.936;8.260;2023-05-24T04:16:45;7.33;;;3.63;;
59161;SDS011;44942;48.936;8.260;2023-05-24T04:21:54;10.35;;;3.90;;
59161;SDS011;44942;48.936;8.260;2023-05-24T04:26:56;10.48;;;4.45;;
59161;SDS011;44942;48.936;8.260;2023-05-24T04:31:57;8.88;;;3.80;;
59161;SDS011;44942;48.936;8.260;2023-05-24T04:37:05;12.15;;;4.10;;
59161;SDS011;44942;48.936;8.260;2023-05-24T04:42:06;10.63;;;3.80;;
59161;SDS011;44942;48.936;8.260;2023-05-24T04:47:07;7.17;;;3.90;;
59161;SDS011;44942;48.936;8.260;2023-05-24T04:52:08;17.52;;;4.13;;
59161;SDS011;44942;48.936;8.260;2023-05-24T04:57:09;10.50;;;4.07;;
59161;SDS011;44942;48.936;8.260;2023-05-24T05:02:09;9.53;;;3.93;;
59161;SDS011;44942;48.936;8.260;2023-05-24T05:07:10;9.48;;;3.80;;
59161;SDS011;44942;48.936;8.260;2023-05-24T05:12:11;10.60;;;3.63;;
59161;SDS011;44942;48.936;8.260;2023-05-24T05:17:11;10.23;;;3.67;;
59161;SDS011;44942;48.936;8.260;2023-05-24T05:22:12;8.65;;;3.70;;
59161;SDS011;44942;48.936;8.260;2023-05-24T05:27:13;6.43;;;3.70;;
59161;SDS011;44942;48.936;8.260;2023-05-24T05:32:13;6.67;;;3.53;;
59161;SDS011;44942;48.936;8.260;2023-05-24T05:37:14;7.03;;;3.58;;
59161;SDS011;44942;48.936;8.260;2023-05-24T05:42:15;9.70;;;4.00;;
59161;SDS011;44942;48.936;8.260;2023-05-24T05:47:15;9.53;;;3.90;;
59161;SDS011;44942;48.936;8.260;2023-05-24T05:52:16;7.90;;;3.90;;
59161;SDS011;44942;48.936;8.260;2023-05-24T05:57:17;10.67;;;4.13;;
59161;SDS011;44942;48.936;8.260;2023-05-24T06:02:22;11.63;;;4.15;;
59161;SDS011;44942;48.936;8.260;2023-05-24T06:07:23;11.50;;;4.27;;
59161;SDS011;44942;48.936;8.260;2023-05-24T06:12:24;10.93;;;3.67;;
59161;SDS011;44942;48.936;8.260;2023-05-24T06:17:25;11.85;;;4.00;;
59161;SDS011;44942;48.936;8.260;2023-05-24T06:22:27;9.18;;;3.75;;
59161;SDS011;44942;48.936;8.260;2023-05-24T06:32:29;10.30;;;3.80;;
59161;SDS011;44942;48.936;8.260;2023-05-24T06:37:30;12.20;;;4.00;;
59161;SDS011;44942;48.936;8.260;2023-05-24T06:42:30;10.60;;;4.03;;
59161;SDS011;44942;48.936;8.260;2023-05-24T06:47:31;11.33;;;3.73;;
59161;SDS011;44942;48.936;8.260;2023-05-24T06:52:31;11.43;;;3.90;;
59161;SDS011;44942;48.936;8.260;2023-05-24T06:57:32;11.33;;;3.83;;
59161;SDS011;44942;48.936;8.260;2023-05-24T07:02:32;10.17;;;3.83;;
59161;SDS011;44942;48.936;8.260;2023-05-24T07:07:33;11.60;;;3.60;;
59161;SDS011;44942;48.936;8.260;2023-05-24T07:12:33;9.20;;;3.30;;
59161;SDS011;44942;48.936;8.260;2023-05-24T07:17:34;10.87;;;3.90;;
59161;SDS011;44942;48.936;8.260;2023-05-24T07:22:35;12.00;;;3.65;;
59161;SDS011;44942;48.936;8.260;2023-05-24T07:27:36;11.18;;;3.65;;
59161;SDS011;44942;48.936;8.260;2023-05-24T07:32:36;10.73;;;3.65;;
59161;SDS011;44942;48.936;8.260;2023-05-24T07:37:37;9.07;;;3.37;;
59161;SDS011;44942;48.936;8.260;2023-05-24T07:42:38;7.93;;;3.30;;
59161;SDS011;44942;48.936;8.260;2023-05-24T07:47:39;9.23;;;3.30;;
59161;SDS011;44942;48.936;8.260;2023-05-24T07:52:39;10.33;;;3.93;;
59161;SDS011;44942;48.936;8.260;2023-05-24T07:57:40;8.83;;;3.40;;
59161;SDS011;44942;48.936;8.260;2023-05-24T08:02:41;13.50;;;4.05;;
59161;SDS011;44942;48.936;8.260;2023-05-24T08:07:45;14.85;;;3.60;;
59161;SDS011;44942;48.936;8.260;2023-05-24T08:12:47;11.98;;;3.60;;
59161;SDS011;44942;48.936;8.260;2023-05-24T08:17:50;11.40;;;3.47;;
59161;SDS011;44942;48.936;8.260;2023-05-24T08:22:50;10.40;;;3.37;;
59161;SDS011;44942;48.936;8.260;2023-05-24T08:27:51;10.65;;;3.55;;
59161;SDS011;44942;48.936;8.260;2023-05-24T08:32:52;10.10;;;3.40;;
59161;SDS011;44942;48.936;8.260;2023-05-24T08:37:52;10.57;;;3.00;;
59161;SDS011;44942;48.936;8.260;2023-05-24T08:42:53;10.38;;;3.05;;
59161;SDS011;44942;48.936;8.260;2023-05-24T08:47:58;9.35;;;3.28;;
59161;SDS011;44942;48.936;8.260;2023-05-24T08:52:59;8.73;;;2.90;;
59161;SDS011;44942;48.936;8.260;2023-05-24T08:58:03;10.57;;;2.97;;
59161;SDS011;44942;48.936;8.260;2023-05-24T09:03:05;11.57;;;3.47;;
59161;SDS011;44942;48.936;8.260;2023-05-24T09:08:06;8.43;;;2.90;;
59161;SDS011;44942;48.936;8.260;2023-05-24T09:13:08;13.38;;;3.00;;
59161;SDS011;44942;48.936;8.260;2023-05-24T09:18:10;10.40;;;3.38;;
59161;SDS011;44942;48.936;8.260;2023-05-24T09:23:10;14.80;;;3.57;;
59161;SDS011;44942;48.936;8.260;2023-05-24T09:28:13;12.45;;;2.95;;
59161;SDS011;44942;48.936;8.260;2023-05-24T09:33:15;13.45;;;3.55;;
59161;SDS011;44942;48.936;8.260;2023-05-24T09:38:17;9.50;;;3.17;;
59161;SDS011;44942;48.936;8.260;2023-05-24T09:43:18;9.75;;;3.20;;
59161;SDS011;44942;48.936;8.260;2023-05-24T09:48:18;9.43;;;3.00;;
59161;SDS011;44942;48.936;8.260;2023-05-24T09:53:19;12.30;;;3.00;;
59161;SDS011;44942;48.936;8.260;2023-05-24T09:58:21;8.55;;;3.42;;
59161;SDS011;44942;48.936;8.260;2023-05-24T10:03:28;8.20;;;2.95;;
59161;SDS011;44942;48.936;8.260;2023-05-24T10:08:29;11.40;;;3.33;;
59161;SDS011;44942;48.936;8.260;2023-05-24T10:13:31;12.32;;;3.25;;
59161;SDS011;44942;48.936;8.260;2023-05-24T10:18:34;9.20;;;3.08;;
59161;SDS011;44942;48.936;8.260;2023-05-24T10:23:35;7.17;;;2.80;;
59161;SDS011;44942;48.936;8.260;2023-05-24T10:28:42;8.38;;;2.58;;
59161;SDS011;44942;48.936;8.260;2023-05-24T10:33:45;9.05;;;2.95;;
59161;SDS011;44942;48.936;8.260;2023-05-24T10:38:47;8.13;;;2.83;;
59161;SDS011;44942;48.936;8.260;2023-05-24T10:43:49;9.27;;;3.03;;
59161;SDS011;44942;48.936;8.260;2023-05-24T10:48:58;9.63;;;3.17;;
59161;SDS011;44942;48.936;8.260;2023-05-24T10:54:18;7.60;;;3.10;;
59161;SDS011;44942;48.936;8.260;2023-05-24T10:59:28;34.55;;;3.38;;
59161;SDS011;44942;48.936;8.260;2023-05-24T11:04:37;25.83;;;3.20;;
59161;SDS011;44942;48.936;8.260;2023-05-24T11:09:42;10.05;;;2.50;;
59161;SDS011;44942;48.936;8.260;2023-05-24T11:14:47;6.22;;;2.58;;
59161;SDS011;44942;48.936;8.260;2023-05-24T11:19:52;9.88;;;2.70;;
59161;SDS011;44942;48.936;8.260;2023-05-24T11:24:54;6.68;;;2.70;;
59161;SDS011;44942;48.936;8.260;2023-05-24T11:29:56;7.18;;;2.72;;
59161;SDS011;44942;48.936;8.260;2023-05-24T11:34:57;7.85;;;2.67;;
59161;SDS011;44942;48.936;8.260;2023-05-24T11:39:58;6.68;;;2.67;;
59161;SDS011;44942;48.936;8.260;2023-05-24T11:45:06;6.43;;;2.67;;
59161;SDS011;44942;48.936;8.260;2023-05-24T11:50:09;7.68;;;2.60;;
59161;SDS011;44942;48.936;8.260;2023-05-24T11:55:13;6.63;;;2.47;;
59161;SDS011;44942;48.936;8.260;2023-05-24T12:00:25;6.53;;;2.45;;
59161;SDS011;44942;48.936;8.260;2023-05-24T12:05:26;8.18;;;2.47;;
59161;SDS011;44942;48.936;8.260;2023-05-24T12:10:34;7.97;;;2.40;;
59161;SDS011;44942;48.936;8.260;2023-05-24T12:15:35;9.00;;;2.40;;
59161;SDS011;44942;48.936;8.260;2023-05-24T12:20:36;5.72;;;2.35;;
59161;SDS011;44942;48.936;8.260;2023-05-24T12:25:37;6.35;;;2.30;;
59161;SDS011;44942;48.936;8.260;2023-05-24T12:30:38;3.60;;;2.20;;
59161;SDS011;44942;48.936;8.260;2023-05-24T12:35:43;7.63;;;2.70;;
59161;SDS011;44942;48.936;8.260;2023-05-24T12:40:45;7.70;;;2.60;;
59161;SDS011;44942;48.936;8.260;2023-05-24T12:45:47;6.20;;;2.33;;
59161;SDS011;44942;48.936;8.260;2023-05-24T12:50:47;5.50;;;2.30;;
59161;SDS011;44942;48.936;8.260;2023-05-24T12:55:48;7.77;;;2.60;;
59161;SDS011;44942;48.936;8.260;2023-05-24T13:00:50;7.57;;;2.60;;
59161;SDS011;44942;48.936;8.260;2023-05-24T13:05:51;6.10;;;2.40;;
59161;SDS011;44942;48.936;8.260;2023-05-24T13:10:51;5.97;;;2.20;;
59161;SDS011;44942;48.936;8.260;2023-05-24T13:15:52;5.15;;;2.47;;
59161;SDS011;44942;48.936;8.260;2023-05-24T13:20:53;6.63;;;2.55;;
59161;SDS011;44942;48.936;8.260;2023-05-24T13:25:54;5.17;;;2.50;;
59161;SDS011;44942;48.936;8.260;2023-05-24T13:30:54;4.90;;;2.33;;
59161;SDS011;44942;48.936;8.260;2023-05-24T13:35:55;6.50;;;2.33;;
59161;SDS011;44942;48.936;8.260;2023-05-24T13:40:56;8.05;;;2.15;;
59161;SDS011;44942;48.936;8.260;2023-05-24T13:45:56;6.50;;;2.50;;
59161;SDS011;44942;48.936;8.260;2023-05-24T13:50:57;8.93;;;3.00;;
59161;SDS011;44942;48.936;8.260;2023-05-24T13:55:58;9.03;;;2.77;;
59161;SDS011;44942;48.936;8.260;2023-05-24T14:00:58;6.53;;;2.63;;
59161;SDS011;44942;48.936;8.260;2023-05-24T14:05:59;7.93;;;2.77;;
59161;SDS011;44942;48.936;8.260;2023-05-24T14:11:00;6.38;;;2.40;;
59161;SDS011;44942;48.936;8.260;2023-05-24T14:16:01;8.20;;;2.17;;
59161;SDS011;44942;48.936;8.260;2023-05-24T14:21:04;5.97;;;2.40;;
59161;SDS011;44942;48.936;8.260;2023-05-24T14:26:05;7.22;;;2.53;;
59161;SDS011;44942;48.936;8.260;2023-05-24T14:31:06;7.43;;;2.53;;
59161;SDS011;44942;48.936;8.260;2023-05-24T14:36:06;9.00;;;3.47;;
59161;SDS011;44942;48.936;8.260;2023-05-24T14:41:08;24.23;;;11.60;;
59161;SDS011;44942;48.936;8.260;2023-05-24T14:46:09;57.90;;;34.63;;
59161;SDS011;44942;48.936;8.260;2023-05-24T14:51:09;30.07;;;15.00;;
59161;SDS011;44942;48.936;8.260;2023-05-24T14:56:10;53.77;;;35.13;;
59161;SDS011;44942;48.936;8.260;2023-05-24T15:01:12;83.03;;;54.47;;
59161;SDS011;44942;48.936;8.260;2023-05-24T15:06:13;62.97;;;39.30;;
59161;SDS011;44942;48.936;8.260;2023-05-24T15:11:14;58.33;;;38.58;;
59161;SDS011;44942;48.936;8.260;2023-05-24T15:16:16;56.08;;;35.72;;
59161;SDS011;44942;48.936;8.260;2023-05-24T15:21:17;48.20;;;31.43;;
59161;SDS011;44942;48.936;8.260;2023-05-24T15:26:21;43.90;;;26.73;;
59161;SDS011;44942;48.936;8.260;2023-05-24T15:31:21;36.70;;;22.23;;
59161;SDS011;44942;48.936;8.260;2023-05-24T15:36:22;29.70;;;19.17;;
59161;SDS011;44942;48.936;8.260;2023-05-24T15:41:24;30.75;;;17.75;;
59161;SDS011;44942;48.936;8.260;2023-05-24T15:46:25;29.73;;;16.95;;
59161;SDS011;44942;48.936;8.260;2023-05-24T16:07:15;12.20;;;7.82;;
59161;SDS011;44942;48.936;8.260;2023-05-24T16:12:17;10.45;;;6.25;;
59161;SDS011;44942;48.936;8.260;2023-05-24T16:17:18;11.67;;;6.03;;
59161;SDS011;44942;48.936;8.260;2023-05-24T16:22:18;12.13;;;5.70;;
59161;SDS011;44942;48.936;8.260;2023-05-24T16:27:20;10.18;;;4.88;;
59161;SDS011;44942;48.936;8.260;2023-05-24T16:32:29;16.15;;;4.38;;
59161;SDS011;44942;48.936;8.260;2023-05-24T16:37:30;13.75;;;3.75;;
59161;SDS011;44942;48.936;8.260;2023-05-24T16:42:31;8.40;;;3.33;;
59161;SDS011;44942;48.936;8.260;2023-05-24T16:47:31;9.60;;;3.50;;
59161;SDS011;44942;48.936;8.260;2023-05-24T16:52:38;12.77;;;3.30;;
59161;SDS011;44942;48.936;8.260;2023-05-24T16:57:39;8.18;;;3.28;;
59161;SDS011;44942;48.936;8.260;2023-05-24T17:07:41;10.73;;;3.30;;
59161;SDS011;44942;48.936;8.260;2023-05-24T17:12:41;5.65;;;3.08;;
59161;SDS011;44942;48.936;8.260;2023-05-24T17:22:56;12.98;;;3.92;;
59161;SDS011;44942;48.936;8.260;2023-05-24T17:27:57;10.57;;;3.30;;
59161;SDS011;44942;48.936;8.260;2023-05-24T17:32:57;23.50;;;3.73;;
59161;SDS011;44942;48.936;8.260;2023-05-24T17:37:58;10.87;;;3.33;;
59161;SDS011;44942;48.936;8.260;2023-05-24T17:42:58;12.60;;;3.43;;
59161;SDS011;44942;48.936;8.260;2023-05-24T17:47:59;9.77;;;3.57;;
59161;SDS011;44942;48.936;8.260;2023-05-24T17:53:00;9.17;;;3.23;;
59161;SDS011;44942;48.936;8.260;2023-05-24T17:58:00;7.13;;;3.23;;
59161;SDS011;44942;48.936;8.260;2023-05-24T18:03:01;11.07;;;3.63;;
59161;SDS011;44942;48.936;8.260;2023-05-24T18:08:02;17.35;;;4.00;;
59161;SDS011;44942;48.936;8.260;2023-05-24T18:13:04;12.70;;;3.33;;
59161;SDS011;44942;48.936;8.260;2023-05-24T18:18:07;12.25;;;3.80;;
59161;SDS011;44942;48.936;8.260;2023-05-24T18:23:07;9.43;;;3.58;;
59161;SDS011;44942;48.936;8.260;2023-05-24T18:28:08;10.40;;;3.55;;
59161;SDS011;44942;48.936;8.260;2023-05-24T18:33:09;10.03;;;3.40;;
59161;SDS011;44942;48.936;8.260;2023-05-24T18:38:09;9.33;;;3.23;;
59161;SDS011;44942;48.936;8.260;2023-05-24T18:43:13;9.77;;;3.70;;
59161;SDS011;44942;48.936;8.260;2023-05-24T18:48:13;7.87;;;3.30;;
59161;SDS011;44942;48.936;8.260;2023-05-24T18:53:14;8.57;;;3.40;;
59161;SDS011;44942;48.936;8.260;2023-05-24T18:58:14;10.70;;;3.67;;
59161;SDS011;44942;48.936;8.260;2023-05-24T19:03:18;9.40;;;3.43;;
59161;SDS011;44942;48.936;8.260;2023-05-24T19:08:19;9.70;;;3.53;;
59161;SDS011;44942;48.936;8.260;2023-05-24T19:13:19;9.63;;;3.67;;
59161;SDS011;44942;48.936;8.260;2023-05-24T19:18:20;7.97;;;3.30;;
59161;SDS011;44942;48.936;8.260;2023-05-24T19:28:22;7.13;;;3.47;;
59161;SDS011;44942;48.936;8.260;2023-05-24T19:33:23;9.05;;;3.50;;
59161;SDS011;44942;48.936;8.260;2023-05-24T19:38:23;7.97;;;3.13;;
59161;SDS011;44942;48.936;8.260;2023-05-24T19:43:24;11.50;;;3.37;;
59161;SDS011;44942;48.936;8.260;2023-05-24T19:48:24;8.00;;;3.23;;
59161;SDS011;44942;48.936;8.260;2023-05-24T19:58:26;7.73;;;3.20;;
59161;SDS011;44942;48.936;8.260;2023-05-24T20:03:28;9.88;;;3.67;;
59161;SDS011;44942;48.936;8.260;2023-05-24T20:08:29;7.10;;;3.90;;
59161;SDS011;44942;48.936;8.260;2023-05-24T20:13:30;10.63;;;3.80;;
59161;SDS011;44942;48.936;8.260;2023-05-24T20:18:30;8.70;;;3.40;;
59161;SDS011;44942;48.936;8.260;2023-05-24T20:23:34;9.15;;;3.70;;
59161;SDS011;44942;48.936;8.260;2023-05-24T20:28:34;10.77;;;3.47;;
59161;SDS011;44942;48.936;8.260;2023-05-24T20:33:35;8.47;;;3.40;;
59161;SDS011;44942;48.936;8.260;2023-05-24T20:38:37;7.75;;;3.47;;
59161;SDS011;44942;48.936;8.260;2023-05-24T20:43:38;8.15;;;3.60;;
59161;SDS011;44942;48.936;8.260;2023-05-24T20:48:39;8.00;;;3.20;;
59161;SDS011;44942;48.936;8.260;2023-05-24T20:53:40;9.18;;;3.80;;
59161;SDS011;44942;48.936;8.260;2023-05-24T20:58:40;6.55;;;3.60;;
59161;SDS011;44942;48.936;8.260;2023-05-24T21:03:41;7.23;;;3.10;;
59161;SDS011;44942;48.936;8.260;2023-05-24T21:08:41;8.80;;;3.63;;
59161;SDS011;44942;48.936;8.260;2023-05-24T21:13:42;8.60;;;3.63;;
59161;SDS011;44942;48.936;8.260;2023-05-24T21:18:43;9.17;;;3.73;;
59161;SDS011;44942;48.936;8.260;2023-05-24T21:23:43;7.17;;;3.47;;
59161;SDS011;44942;48.936;8.260;2023-05-24T21:28:44;6.68;;;3.40;;
59161;SDS011;44942;48.936;8.260;2023-05-24T21:33:45;9.25;;;4.10;;
59161;SDS011;44942;48.936;8.260;2023-05-24T21:38:45;7.67;;;3.37;;
59161;SDS011;44942;48.936;8.260;2023-05-24T21:43:46;8.47;;;3.93;;
59161;SDS011;44942;48.936;8.260;2023-05-24T21:48:46;8.17;;;3.57;;
59161;SDS011;44942;48.936;8.260;2023-05-24T21:53:47;9.73;;;3.90;;
59161;SDS011;44942;48.936;8.260;2023-05-24T21:58:47;7.83;;;3.30;;
59161;SDS011;44942;48.936;8.260;2023-05-24T22:03:48;7.47;;;3.50;;
59161;SDS011;44942;48.936;8.260;2023-05-24T22:08:49;9.73;;;3.63;;
59161;SDS011;44942;48.936;8.260;2023-05-24T22:13:49;9.43;;;3.50;;
59161;SDS011;44942;48.936;8.260;2023-05-24T22:18:50;8.60;;;3.05;;
59161;SDS011;44942;48.936;8.260;2023-05-24T22:23:54;6.60;;;3.40;;
59161;SDS011;44942;48.936;8.260;2023-05-24T22:28:55;5.57;;;3.27;;
59161;SDS011;44942;48.936;8.260;2023-05-24T22:33:59;7.28;;;3.58;;
59161;SDS011;44942;48.936;8.260;2023-05-24T22:39:01;8.32;;;3.65;;
59161;SDS011;44942;48.936;8.260;2023-05-24T22:49:03;7.13;;;3.30;;
59161;SDS011;44942;48.936;8.260;2023-05-24T22:59:05;9.50;;;4.07;;
59161;SDS011;44942;48.936;8.260;2023-05-24T23:04:06;6.88;;;3.67;;
59161;SDS011;44942;48.936;8.260;2023-05-24T23:09:07;7.60;;;3.73;;
59161;SDS011;44942;48.936;8.260;2023-05-24T23:14:07;9.45;;;3.75;;
59161;SDS011;44942;48.936;8.260;2023-05-24T23:19:09;7.78;;;3.78;;
59161;SDS011;44942;48.936;8.260;2023-05-24T23:24:12;7.47;;;3.78;;
59161;SDS011;44942;48.936;8.260;2023-05-24T23:29:14;7.38;;;3.35;;
59161;SDS011;44942;48.936;8.260;2023-05-24T23:34:15;7.60;;;3.50;;
59161;SDS011;44942;48.936;8.260;2023-05-24T23:39:15;6.67;;;3.70;;
59161;SDS011;44942;48.936;8.260;2023-05-24T23:44:16;8.87;;;3.70;;
59161;SDS011;44942;48.936;8.260;2023-05-24T23:49:17;7.27;;;3.57;;
59161;SDS011;44942;48.936;8.260;2023-05-24T23:54:18;6.68;;;3.40;;
59161;SDS011;44942;48.936;8.260;2023-05-24T23:59:18;8.40;;;3.97;;
